createdAt,value
2018-07-08T00:01:34.757Z,11.30
2018-07-08T00:04:03.319Z,11.30
2018-07-08T00:06:31.953Z,11.30
2018-07-08T00:09:00.575Z,11.30
2018-07-08T00:11:29.163Z,11.30
2018-07-08T00:13:57.723Z,11.30
2018-07-08T00:16:26.360Z,11.30
2018-07-08T00:18:54.897Z,11.30
2018-07-08T00:21:23.489Z,11.30
2018-07-08T00:23:52.116Z,11.20
2018-07-08T00:26:20.719Z,11.20
2018-07-08T00:28:49.281Z,11.20
2018-07-08T00:33:46.091Z,11.10
2018-07-08T00:36:14.666Z,11.10
2018-07-08T00:38:43.291Z,11.10
2018-07-08T00:41:11.872Z,11.10
2018-07-08T00:43:40.446Z,11.00
2018-07-08T00:46:09.125Z,11.10
2018-07-08T00:48:37.673Z,11.00
2018-07-08T00:51:06.618Z,11.00
2018-07-08T00:53:35.155Z,11.00
2018-07-08T00:56:03.793Z,11.00
2018-07-08T00:58:32.407Z,11.00
2018-07-08T01:01:01.003Z,11.00
2018-07-08T01:03:29.620Z,11.00
2018-07-08T01:05:58.227Z,11.00
2018-07-08T01:08:26.824Z,11.00
2018-07-08T01:10:55.417Z,11.00
2018-07-08T01:15:52.216Z,11.10
2018-07-08T01:18:20.801Z,11.10
2018-07-08T01:20:49.404Z,11.10
2018-07-08T01:23:17.983Z,11.10
2018-07-08T01:25:57.868Z,11.10
2018-07-08T01:28:26.514Z,11.10
2018-07-08T01:30:55.075Z,11.00
2018-07-08T01:33:23.696Z,11.00
2018-07-08T01:35:52.247Z,11.00
2018-07-08T01:38:20.885Z,10.90
2018-07-08T01:40:49.481Z,10.90
2018-07-08T01:43:18.068Z,10.90
2018-07-08T01:45:46.664Z,10.90
2018-07-08T01:48:15.228Z,10.90
2018-07-08T01:50:43.919Z,10.80
2018-07-08T01:53:12.588Z,10.80
2018-07-08T01:55:41.221Z,10.90
2018-07-08T01:58:09.750Z,10.90
2018-07-08T02:00:38.352Z,10.90
2018-07-08T02:03:11.699Z,10.90
2018-07-08T02:05:40.644Z,10.90
2018-07-08T02:08:09.235Z,10.90
2018-07-08T02:10:38.335Z,10.90
2018-07-08T02:13:07.039Z,10.90
2018-07-08T02:18:03.919Z,10.90
2018-07-08T02:20:32.561Z,10.90
2018-07-08T02:23:01.517Z,11.00
2018-07-08T02:25:30.236Z,11.00
2018-07-08T02:27:58.892Z,11.00
2018-07-08T02:30:27.476Z,11.00
2018-07-08T02:32:56.023Z,11.00
2018-07-08T02:35:24.892Z,11.00
2018-07-08T02:37:54.137Z,11.00
2018-07-08T02:40:22.678Z,10.90
2018-07-08T02:42:52.552Z,10.80
2018-07-08T02:45:21.132Z,10.80
2018-07-08T02:47:49.804Z,10.70
2018-07-08T02:50:18.364Z,10.70
2018-07-08T02:52:47.124Z,10.70
2018-07-08T02:55:15.755Z,10.70
2018-07-08T02:57:44.344Z,10.80
2018-07-08T03:00:13.146Z,10.80
2018-07-08T03:02:41.748Z,10.80
2018-07-08T03:05:10.290Z,10.90
2018-07-08T03:07:38.850Z,10.90
2018-07-08T03:10:07.429Z,10.90
2018-07-08T03:12:36.013Z,10.90
2018-07-08T03:15:04.649Z,11.00
2018-07-08T03:17:33.263Z,11.00
2018-07-08T03:20:01.868Z,11.10
2018-07-08T03:24:58.666Z,11.00
2018-07-08T03:27:27.188Z,11.00
2018-07-08T03:29:55.749Z,11.00
2018-07-08T03:32:24.311Z,10.90
2018-07-08T03:34:52.908Z,10.90
2018-07-08T03:37:21.480Z,10.80
2018-07-08T03:39:50.037Z,10.80
2018-07-08T03:42:18.608Z,10.90
2018-07-08T03:44:47.198Z,10.90
2018-07-08T03:47:15.716Z,10.90
2018-07-08T03:49:44.267Z,10.90
2018-07-08T03:52:12.831Z,10.90
2018-07-08T03:54:41.433Z,11.00
2018-07-08T03:57:09.957Z,11.00
2018-07-08T03:59:38.556Z,11.00
2018-07-08T04:02:07.143Z,11.10
2018-07-08T04:04:35.908Z,11.10
2018-07-08T04:07:04.519Z,11.20
2018-07-08T04:09:33.042Z,11.20
2018-07-08T04:12:01.603Z,11.30
2018-07-08T04:14:30.157Z,11.40
2018-07-08T04:16:58.713Z,11.40
2018-07-08T04:19:27.280Z,11.50
2018-07-08T04:21:55.843Z,11.50
2018-07-08T04:24:24.367Z,11.50
2018-07-08T04:29:21.160Z,11.70
2018-07-08T04:31:49.884Z,11.70
2018-07-08T04:34:18.419Z,11.70
2018-07-08T04:36:46.981Z,11.80
2018-07-08T04:39:15.576Z,11.80
2018-07-08T04:41:44.176Z,11.80
2018-07-08T04:44:12.694Z,11.90
2018-07-08T04:46:41.259Z,12.00
2018-07-08T04:49:09.872Z,12.00
2018-07-08T04:51:38.388Z,12.10
2018-07-08T04:54:06.951Z,12.20
2018-07-08T04:56:35.535Z,12.20
2018-07-08T04:59:04.093Z,12.30
2018-07-08T05:01:32.659Z,12.40
2018-07-08T05:04:01.266Z,12.40
2018-07-08T05:06:29.862Z,12.50
2018-07-08T05:11:26.667Z,12.70
2018-07-08T05:13:55.228Z,12.70
2018-07-08T05:16:23.772Z,12.90
2018-07-08T05:18:52.365Z,12.90
2018-07-08T05:21:20.996Z,13.00
2018-07-08T05:23:49.608Z,13.10
2018-07-08T05:26:18.195Z,13.20
2018-07-08T05:28:46.748Z,13.30
2018-07-08T05:31:15.361Z,13.30
2018-07-08T05:33:43.941Z,13.40
2018-07-08T05:36:12.457Z,13.50
2018-07-08T05:38:41.157Z,13.60
2018-07-08T05:41:09.728Z,13.70
2018-07-08T05:43:38.336Z,13.70
2018-07-08T05:48:35.158Z,14.00
2018-07-08T05:51:03.784Z,14.10
2018-07-08T05:56:00.596Z,14.40
2018-07-08T05:58:29.198Z,14.40
2018-07-08T06:00:57.794Z,14.60
2018-07-08T06:03:26.318Z,14.70
2018-07-08T06:05:54.881Z,14.90
2018-07-08T06:08:23.424Z,14.90
2018-07-08T06:10:51.970Z,15.10
2018-07-08T06:13:20.562Z,15.20
2018-07-08T06:15:49.136Z,15.20
2018-07-08T06:18:17.728Z,15.30
2018-07-08T06:20:46.273Z,15.40
2018-07-08T06:23:14.851Z,15.50
2018-07-08T06:25:43.418Z,15.60
2018-07-08T06:28:12.038Z,15.80
2018-07-08T06:30:40.551Z,15.90
2018-07-08T06:33:09.132Z,15.90
2018-07-08T06:35:37.676Z,16.00
2018-07-08T06:38:06.260Z,16.20
2018-07-08T06:40:34.814Z,16.30
2018-07-08T06:43:03.410Z,16.40
2018-07-08T06:45:32.024Z,16.40
2018-07-08T06:48:00.591Z,16.50
2018-07-08T06:50:29.400Z,16.60
2018-07-08T06:52:57.930Z,16.70
2018-07-08T06:55:26.657Z,16.80
2018-07-08T06:57:55.242Z,16.60
2018-07-08T07:02:52.077Z,16.30
2018-07-08T07:05:20.603Z,16.10
2018-07-08T07:07:49.204Z,16.10
2018-07-08T07:10:17.773Z,16.20
2018-07-08T07:15:15.208Z,16.40
2018-07-08T07:17:43.800Z,16.60
2018-07-08T07:20:12.416Z,16.80
2018-07-08T07:22:40.981Z,17.10
2018-07-08T07:25:09.849Z,17.30
2018-07-08T07:27:38.548Z,17.50
2018-07-08T07:30:07.198Z,17.60
2018-07-08T07:32:35.845Z,17.70
2018-07-08T07:35:04.493Z,17.70
2018-07-08T07:37:33.033Z,17.70
2018-07-08T07:40:01.609Z,17.90
2018-07-08T07:42:30.202Z,18.10
2018-07-08T07:44:58.723Z,18.30
2018-07-08T07:47:27.273Z,18.40
2018-07-08T07:49:55.812Z,18.50
2018-07-08T07:52:24.427Z,18.50
2018-07-08T07:54:52.967Z,18.40
2018-07-08T07:57:21.549Z,18.30
2018-07-08T07:59:50.145Z,18.30
2018-07-08T08:02:18.657Z,18.30
2018-07-08T08:04:47.219Z,18.50
2018-07-08T08:07:15.845Z,18.60
2018-07-08T08:09:44.355Z,18.60
2018-07-08T08:12:12.876Z,18.60
2018-07-08T08:14:41.464Z,18.60
2018-07-08T08:17:10.055Z,18.50
2018-07-08T08:22:06.990Z,18.70
2018-07-08T08:24:35.517Z,18.70
2018-07-08T08:27:04.107Z,18.70
2018-07-08T08:29:32.616Z,18.80
2018-07-08T08:32:01.351Z,19.00
2018-07-08T08:35:05.653Z,19.10
2018-07-08T08:37:36.532Z,19.30
2018-07-08T08:40:05.956Z,19.50
2018-07-08T08:42:34.549Z,19.60
2018-07-08T08:45:05.490Z,19.60
2018-07-08T08:47:34.350Z,19.60
2018-07-08T08:50:02.932Z,19.80
2018-07-08T08:52:31.551Z,19.80
2018-07-08T08:55:00.113Z,19.90
2018-07-08T08:57:28.648Z,19.90
2018-07-08T08:59:57.472Z,20.00
2018-07-08T09:02:26.076Z,20.10
2018-07-08T09:04:54.616Z,20.10
2018-07-08T09:07:23.309Z,20.00
2018-07-08T09:09:51.885Z,20.00
2018-07-08T09:12:20.460Z,20.10
2018-07-08T09:14:49.020Z,20.20
2018-07-08T09:17:17.652Z,20.30
2018-07-08T09:19:46.210Z,20.30
2018-07-08T09:22:14.805Z,20.30
2018-07-08T09:24:43.415Z,20.30
2018-07-08T09:27:11.949Z,20.30
2018-07-08T09:29:40.521Z,20.30
2018-07-08T09:32:09.127Z,20.40
2018-07-08T09:34:37.688Z,20.50
2018-07-08T09:37:06.226Z,20.60
2018-07-08T09:39:34.807Z,20.50
2018-07-08T09:47:04.347Z,20.60
2018-07-08T09:49:32.929Z,20.70
2018-07-08T09:54:29.879Z,20.50
2018-07-08T09:56:58.423Z,20.70
2018-07-08T09:59:26.992Z,20.90
2018-07-08T10:01:55.547Z,20.90
2018-07-08T10:04:25.044Z,20.90
2018-07-08T10:06:54.447Z,20.90
2018-07-08T10:09:24.126Z,20.90
2018-07-08T10:11:52.710Z,20.80
2018-07-08T10:14:22.459Z,20.70
2018-07-08T10:16:50.989Z,20.90
2018-07-08T10:19:20.342Z,21.10
2018-07-08T10:21:48.899Z,21.00
2018-07-08T10:24:17.480Z,21.00
2018-07-08T10:28:54.689Z,21.00
2018-07-08T10:31:34.533Z,21.00
2018-07-08T10:34:03.124Z,21.10
2018-07-08T10:36:31.719Z,21.00
2018-07-08T10:39:00.277Z,21.00
2018-07-08T10:41:28.842Z,21.20
2018-07-08T10:43:57.421Z,21.30
2018-07-08T10:46:26.015Z,21.30
2018-07-08T10:48:55.347Z,21.40
2018-07-08T10:51:23.949Z,21.50
2018-07-08T10:53:52.544Z,21.50
2018-07-08T10:56:21.055Z,21.40
2018-07-08T10:58:49.761Z,21.30
2018-07-08T11:01:18.278Z,21.40
2018-07-08T11:03:46.848Z,21.60
2018-07-08T11:06:15.423Z,21.80
2018-07-08T11:08:43.939Z,21.70
2018-07-08T11:11:12.550Z,21.70
2018-07-08T11:13:43.072Z,21.70
2018-07-08T11:16:11.649Z,21.80
2018-07-08T11:18:40.403Z,22.00
2018-07-08T11:21:09.480Z,22.10
2018-07-08T11:23:39.993Z,22.00
2018-07-08T11:26:10.135Z,22.00
2018-07-08T11:31:07.404Z,22.10
2018-07-08T11:33:37.616Z,22.20
2018-07-08T11:36:06.887Z,22.10
2018-07-08T11:38:37.881Z,22.10
2018-07-08T11:41:09.886Z,22.20
2018-07-08T11:43:38.460Z,22.40
2018-07-08T11:46:07.096Z,22.50
2018-07-08T11:48:35.700Z,22.70
2018-07-08T11:51:04.324Z,22.70
2018-07-08T11:53:32.839Z,22.50
2018-07-08T11:56:01.551Z,22.60
2018-07-08T11:58:30.133Z,22.60
2018-07-08T12:00:58.683Z,22.50
2018-07-08T12:03:27.278Z,22.40
2018-07-08T12:05:55.909Z,22.60
2018-07-08T12:08:24.444Z,22.70
2018-07-08T12:10:53.006Z,22.70
2018-07-08T12:13:21.611Z,22.80
2018-07-08T12:15:50.168Z,23.00
2018-07-08T12:18:18.710Z,23.00
2018-07-08T12:20:47.303Z,22.90
2018-07-08T12:23:15.852Z,23.00
2018-07-08T12:25:44.613Z,23.00
2018-07-08T12:28:13.192Z,23.10
2018-07-08T12:30:41.752Z,23.00
2018-07-08T12:33:10.336Z,22.80
2018-07-08T12:35:38.972Z,22.80
2018-07-08T12:38:07.528Z,22.80
2018-07-08T12:40:36.081Z,22.90
2018-07-08T12:43:04.719Z,23.00
2018-07-08T12:45:33.371Z,23.40
2018-07-08T12:48:01.921Z,23.40
2018-07-08T12:50:30.511Z,23.50
2018-07-08T12:52:59.073Z,23.70
2018-07-08T12:55:27.578Z,23.90
2018-07-08T12:57:56.103Z,24.00
2018-07-08T13:00:26.367Z,24.20
2018-07-08T13:02:56.628Z,24.30
2018-07-08T13:05:27.002Z,24.00
2018-07-08T13:07:55.632Z,23.90
2018-07-08T13:10:24.176Z,23.90
2018-07-08T13:12:52.793Z,24.00
2018-07-08T13:15:21.336Z,23.80
2018-07-08T13:17:49.891Z,23.90
2018-07-08T13:20:18.497Z,24.00
2018-07-08T13:22:47.085Z,24.40
2018-07-08T13:25:15.685Z,24.70
2018-07-08T13:27:44.370Z,25.00
2018-07-08T13:30:13.073Z,25.00
2018-07-08T13:32:41.716Z,25.30
2018-07-08T13:35:10.249Z,25.30
2018-07-08T13:37:38.802Z,25.30
2018-07-08T13:40:07.359Z,25.20
2018-07-08T13:42:36.021Z,25.00
2018-07-08T13:45:04.681Z,24.80
2018-07-08T13:47:33.269Z,24.70
2018-07-08T13:50:02.098Z,24.50
2018-07-08T13:52:30.625Z,24.60
2018-07-08T13:54:59.212Z,24.50
2018-07-08T13:57:28.705Z,24.40
2018-07-08T13:59:57.312Z,24.50
2018-07-08T14:02:25.915Z,24.40
2018-07-08T14:04:54.448Z,24.40
2018-07-08T14:07:23.026Z,24.70
2018-07-08T14:09:51.577Z,24.80
2018-07-08T14:12:20.172Z,24.50
2018-07-08T14:17:16.997Z,24.80
2018-07-08T14:19:45.635Z,24.80
2018-07-08T14:22:14.163Z,24.60
2018-07-08T14:24:42.985Z,24.70
2018-07-08T14:27:11.539Z,24.80
2018-07-08T14:29:40.252Z,25.20
2018-07-08T14:32:09.164Z,25.40
2018-07-08T14:34:37.760Z,25.60
2018-07-08T14:39:34.563Z,25.40
2018-07-08T14:42:03.183Z,25.20
2018-07-08T14:44:31.809Z,25.10
2018-07-08T14:47:00.315Z,25.00
2018-07-08T14:49:29.060Z,24.70
2018-07-08T14:51:57.597Z,24.70
2018-07-08T14:54:26.220Z,25.00
2018-07-08T14:56:54.808Z,25.20
2018-07-08T14:59:23.391Z,25.20
2018-07-08T15:04:20.216Z,25.30
2018-07-08T15:06:48.800Z,25.10
2018-07-08T15:09:17.335Z,25.00
2018-07-08T15:11:47.599Z,25.20
2018-07-08T15:14:16.137Z,25.20
2018-07-08T15:16:44.704Z,25.30
2018-07-08T15:19:13.304Z,25.50
2018-07-08T15:21:42.104Z,25.90
2018-07-08T15:24:10.620Z,26.00
2018-07-08T15:26:39.233Z,26.10
2018-07-08T15:29:07.900Z,26.30
2018-07-08T15:31:37.821Z,25.70
2018-07-08T15:34:06.432Z,25.10
2018-07-08T15:36:34.976Z,25.00
2018-07-08T15:39:04.290Z,25.30
2018-07-08T15:41:32.911Z,25.60
2018-07-08T15:44:01.516Z,25.80
2018-07-08T15:46:30.118Z,25.70
2018-07-08T15:48:58.707Z,25.60
2018-07-08T15:51:27.432Z,25.80
2018-07-08T15:53:56.997Z,26.20
2018-07-08T15:56:25.579Z,26.20
2018-07-08T15:58:54.297Z,26.20
2018-07-08T16:01:22.857Z,26.10
2018-07-08T16:03:51.464Z,25.80
2018-07-08T16:06:19.991Z,25.50
2018-07-08T16:08:48.549Z,25.70
2018-07-08T16:11:17.137Z,25.80
2018-07-08T16:16:13.912Z,26.00
2018-07-08T16:21:10.736Z,25.70
2018-07-08T16:23:39.315Z,25.10
2018-07-08T16:26:07.979Z,24.70
2018-07-08T16:28:36.556Z,24.80
2018-07-08T16:31:05.178Z,24.80
2018-07-08T16:33:33.736Z,25.00
2018-07-08T16:36:02.450Z,25.10
2018-07-08T16:38:31.012Z,25.20
2018-07-08T16:40:59.544Z,25.20
2018-07-08T16:45:56.386Z,25.50
2018-07-08T16:48:25.590Z,25.80
2018-07-08T16:50:54.184Z,25.90
2018-07-08T16:53:22.762Z,26.00
2018-07-08T16:55:51.376Z,26.50
2018-07-08T16:58:20.021Z,26.30
2018-07-08T17:00:48.628Z,26.00
2018-07-08T17:03:17.237Z,26.50
2018-07-08T17:05:45.783Z,26.40
2018-07-08T17:08:14.404Z,26.30
2018-07-08T17:10:43.016Z,26.50
2018-07-08T17:13:11.580Z,26.10
2018-07-08T17:15:40.372Z,25.70
2018-07-08T17:18:08.908Z,25.40
2018-07-08T17:20:37.492Z,25.50
2018-07-08T17:23:06.084Z,25.80
2018-07-08T17:25:34.793Z,26.00
2018-07-08T17:30:31.660Z,25.20
2018-07-08T17:33:00.300Z,24.90
2018-07-08T17:35:28.927Z,25.00
2018-07-08T17:37:57.540Z,25.30
2018-07-08T17:40:26.071Z,25.40
2018-07-08T17:42:54.652Z,25.40
2018-07-08T17:45:23.197Z,25.70
2018-07-08T17:47:51.871Z,25.50
2018-07-08T17:50:20.452Z,24.90
2018-07-08T17:52:49.063Z,24.70
2018-07-08T17:55:17.580Z,24.60
2018-07-08T17:57:46.310Z,24.60
2018-07-08T18:00:15.106Z,24.60
2018-07-08T18:02:43.672Z,25.20
2018-07-08T18:05:12.231Z,25.20
2018-07-08T18:07:40.813Z,25.20
2018-07-08T18:12:40.453Z,25.50
2018-07-08T18:15:08.948Z,25.20
2018-07-08T18:17:37.546Z,25.50
2018-07-08T18:20:06.166Z,25.60
2018-07-08T18:22:35.269Z,25.60
2018-07-08T18:25:03.772Z,25.60
2018-07-08T18:30:00.633Z,25.00
2018-07-08T18:32:29.175Z,24.50
2018-07-08T18:34:57.718Z,23.90
2018-07-08T18:37:26.257Z,23.50
2018-07-08T18:39:54.762Z,23.40
2018-07-08T18:42:23.332Z,23.30
2018-07-08T18:44:51.873Z,22.90
2018-07-08T18:47:20.469Z,22.10
2018-07-08T18:49:48.980Z,21.20
2018-07-08T18:52:17.485Z,20.60
2018-07-08T18:57:14.320Z,19.60
2018-07-08T18:59:42.839Z,19.20
2018-07-08T19:02:11.369Z,19.00
2018-07-08T19:04:39.910Z,18.80
2018-07-08T19:07:08.549Z,18.70
2018-07-08T19:09:37.344Z,18.60
2018-07-08T19:12:05.899Z,18.50
2018-07-08T19:14:34.489Z,18.40
2018-07-08T19:17:03.070Z,18.20
2018-07-08T19:19:32.118Z,18.00
2018-07-08T19:24:29.008Z,17.70
2018-07-08T19:26:57.652Z,17.50
2018-07-08T19:29:26.216Z,17.40
2018-07-08T19:31:54.813Z,17.20
2018-07-08T19:34:23.389Z,17.10
2018-07-08T19:36:51.926Z,17.00
2018-07-08T19:39:20.453Z,16.90
2018-07-08T19:41:49.040Z,16.80
2018-07-08T19:44:17.692Z,16.70
2018-07-08T19:46:46.220Z,16.60
2018-07-08T19:49:14.800Z,16.50
2018-07-08T19:51:43.365Z,16.40
2018-07-08T19:54:12.006Z,16.40
2018-07-08T19:56:40.936Z,16.30
2018-07-08T19:59:09.505Z,16.20
2018-07-08T20:01:38.017Z,16.10
2018-07-08T20:04:06.560Z,16.10
2018-07-08T20:06:35.097Z,16.10
2018-07-08T20:09:03.792Z,16.00
2018-07-08T20:11:32.368Z,15.90
2018-07-08T20:14:00.908Z,15.90
2018-07-08T20:16:29.472Z,15.80
2018-07-08T20:18:58.182Z,15.70
2018-07-08T20:21:26.998Z,15.70
2018-07-08T20:23:55.441Z,15.60
2018-07-08T20:26:23.993Z,15.60
2018-07-08T20:28:52.544Z,15.50
2018-07-08T20:31:21.091Z,15.40
2018-07-08T20:33:49.671Z,15.30
2018-07-08T20:36:18.259Z,15.20
2018-07-08T20:38:46.795Z,15.20
2018-07-08T20:41:15.304Z,15.10
2018-07-08T20:43:43.941Z,15.10
2018-07-08T20:46:12.490Z,15.00
2018-07-08T20:48:41.221Z,15.00
2018-07-08T20:51:09.791Z,14.90
2018-07-08T20:53:38.324Z,14.80
2018-07-08T20:56:07.011Z,14.70
2018-07-08T20:58:35.569Z,14.70
2018-07-08T21:01:04.117Z,14.60
2018-07-08T21:03:32.715Z,14.60
2018-07-08T21:06:01.241Z,14.50
2018-07-08T21:08:29.849Z,14.40
2018-07-08T21:10:58.405Z,14.40
2018-07-08T21:15:55.281Z,14.40
2018-07-08T21:18:23.836Z,14.40
2018-07-08T21:20:52.414Z,14.30
2018-07-08T21:23:20.930Z,14.40
2018-07-08T21:25:49.556Z,14.40
2018-07-08T21:28:18.231Z,14.40
2018-07-08T21:30:46.983Z,14.30
2018-07-08T21:33:16.714Z,14.30
2018-07-08T21:35:45.608Z,14.20
2018-07-08T21:38:14.200Z,14.20
2018-07-08T21:40:42.781Z,14.20
2018-07-08T21:43:11.272Z,14.10
2018-07-08T21:45:40.596Z,14.10
2018-07-08T21:48:09.196Z,14.10
2018-07-08T21:50:38.201Z,14.00
2018-07-08T21:53:06.771Z,14.00
2018-07-08T21:55:35.872Z,13.90
2018-07-08T21:58:04.490Z,13.90
2018-07-08T22:00:34.421Z,13.80
2018-07-08T22:03:04.826Z,13.80
2018-07-08T22:05:33.660Z,13.70
2018-07-08T22:08:05.208Z,13.70
2018-07-08T22:10:34.990Z,13.70
2018-07-08T22:13:04.189Z,13.70
2018-07-08T22:15:32.717Z,13.60
2018-07-08T22:18:01.229Z,13.60
2018-07-08T22:20:33.190Z,13.60
2018-07-08T22:23:03.776Z,13.50
2018-07-08T22:25:33.240Z,13.50
2018-07-08T22:28:01.760Z,13.50
2018-07-08T22:30:30.322Z,13.50
2018-07-08T22:32:58.889Z,13.50
2018-07-08T22:35:28.976Z,13.50
2018-07-08T22:40:27.481Z,13.40
2018-07-08T22:42:56.675Z,13.40
2018-07-08T22:45:27.196Z,13.40
2018-07-08T22:47:55.755Z,13.30
2018-07-08T22:50:24.295Z,13.30
2018-07-08T22:52:52.921Z,13.30
2018-07-08T22:55:21.432Z,13.40
2018-07-08T22:57:49.959Z,13.40
2018-07-08T23:03:58.758Z,13.40
2018-07-08T23:06:27.316Z,13.40
2018-07-08T23:08:56.201Z,13.40
2018-07-08T23:11:25.439Z,13.30
2018-07-08T23:13:55.080Z,13.30
2018-07-08T23:16:24.265Z,13.30
2018-07-08T23:18:52.970Z,13.20
2018-07-08T23:21:21.553Z,13.20
2018-07-08T23:23:50.168Z,13.10
2018-07-08T23:26:18.689Z,13.00
2018-07-08T23:28:47.212Z,13.00
2018-07-08T23:31:15.760Z,13.10
2018-07-08T23:33:44.353Z,13.10
2018-07-08T23:36:13.259Z,13.10
2018-07-08T23:38:41.770Z,13.00
2018-07-08T23:41:11.465Z,13.00
2018-07-08T23:43:39.994Z,13.00
2018-07-08T23:46:08.568Z,13.00
2018-07-08T23:48:37.136Z,13.10
2018-07-08T23:51:05.732Z,13.00
2018-07-08T23:53:34.301Z,13.00
2018-07-08T23:56:02.902Z,13.00
2018-07-08T23:58:31.444Z,13.00
